Time;durP1;ratioP1;P1;durP2;ratioP2;P2;SDS_P1;SDS_P2;PMS_P1;PMS_P2;Temp;Humidity;BMP_temperature;BMP_pressure;BME280_temperature;BME280_humidity;BME280_pressure;Samples;Min_cycle;Max_cycle;Signal;HPM_P1;HPM_P2
2021/07/11 00:00:00;;;;;;;24.60;21.60;;;;;;;21.59;100.00;100870.38;1708389;82;21055;-85
2021/07/11 00:02:29;;;;;;;24.12;21.55;;;;;;;21.57;100.00;100867.89;1707315;81;21057;-81
2021/07/11 00:04:56;;;;;;;21.68;19.62;;;;;;;21.56;100.00;100870.70;1727408;81;21358;-84
2021/07/11 00:07:24;;;;;;;22.50;19.92;;;;;;;21.55;100.00;100871.70;1707725;82;21104;-83
2021/07/11 00:09:51;;;;;;;23.50;20.10;;;;;;;21.52;100.00;100865.43;1707318;81;21583;-84
2021/07/11 00:12:18;;;;;;;25.05;20.43;;;;;;;21.51;100.00;100867.78;1708591;82;21092;-85
2021/07/11 00:14:45;;;;;;;21.80;19.60;;;;;;;21.50;100.00;100866.14;1710683;81;21049;-82
2021/07/11 00:17:12;;;;;;;22.32;19.95;;;;;;;21.47;100.00;100867.81;1751283;80;21102;-83
2021/07/11 00:19:39;;;;;;;22.67;20.45;;;;;;;21.42;100.00;100861.25;1750270;79;21027;-82
2021/07/11 00:22:05;;;;;;;23.62;20.25;;;;;;;21.39;100.00;100857.63;1745259;79;21135;-81
2021/07/11 00:24:34;;;;;;;23.60;21.02;;;;;;;21.36;100.00;100867.24;1755493;79;21052;-82
2021/07/11 00:27:01;;;;;;;23.38;20.97;;;;;;;21.33;100.00;100864.13;1754964;79;21146;-80
2021/07/11 00:29:28;;;;;;;24.98;22.50;;;;;;;21.28;100.00;100864.19;1792492;79;21084;-83
2021/07/11 00:31:55;;;;;;;25.95;23.15;;;;;;;21.25;100.00;100862.41;1760312;79;21057;-81
2021/07/11 00:34:23;;;;;;;25.65;23.15;;;;;;;21.22;100.00;100863.59;1763583;79;21069;-83
2021/07/11 00:36:51;;;;;;;25.43;22.93;;;;;;;21.17;100.00;100860.64;1763008;79;21094;-83
2021/07/11 00:39:17;;;;;;;24.77;22.60;;;;;;;21.15;100.00;100861.83;1763070;79;21042;-84
2021/07/11 00:41:45;;;;;;;24.63;22.05;;;;;;;21.12;100.00;100857.20;1760065;79;21069;-84
2021/07/11 00:44:12;;;;;;;25.40;21.52;;;;;;;21.06;100.00;100852.62;1795690;79;21068;-82
2021/07/11 00:46:44;;;;;;;23.57;21.17;;;;;;;20.94;100.00;100848.27;1756326;80;21509;-84
2021/07/11 00:49:11;;;;;;;23.15;20.77;;;;;;;20.82;100.00;100854.15;1791203;79;21108;-84
2021/07/11 00:51:39;;;;;;;33.70;21.75;;;;;;;20.72;100.00;100853.05;1771022;79;21022;-83
2021/07/11 00:54:07;;;;;;;43.15;22.73;;;;;;;20.68;100.00;100857.87;1779850;79;21046;-83
2021/07/11 00:56:35;;;;;;;31.37;21.90;;;;;;;20.71;100.00;100860.66;1754954;79;21068;-84
2021/07/11 00:59:03;;;;;;;44.80;21.85;;;;;;;20.74;100.00;100859.83;1769398;79;21018;-85
2021/07/11 01:01:43;;;;;;;33.10;21.65;;;;;;;20.77;100.00;100860.81;1803521;78;20995;-81
2021/07/11 01:04:18;;;;;;;24.37;20.63;;;;;;;20.80;100.00;100857.80;1764188;79;21058;-84
2021/07/11 01:06:51;;;;;;;27.60;19.45;;;;;;;20.85;100.00;100856.45;1762462;79;21841;-85
2021/07/11 01:09:24;;;;;;;21.93;19.90;;;;;;;20.86;100.00;100858.91;1769775;78;21140;-82
2021/07/11 01:11:58;;;;;;;29.25;19.73;;;;;;;20.87;100.00;100855.78;1738704;79;21469;-83
2021/07/11 01:14:29;;;;;;;22.22;19.60;;;;;;;20.90;100.00;100861.55;1797092;79;20977;-83
2021/07/11 01:16:59;;;;;;;24.00;19.87;;;;;;;20.94;100.00;100861.50;1788641;79;21127;-82
2021/07/11 01:19:57;;;;;;;21.87;19.20;;;;;;;20.97;100.00;100864.28;1785795;79;20990;-84
2021/07/11 01:22:29;;;;;;;24.12;17.87;;;;;;;20.99;100.00;100856.19;1749443;79;22461;-82
2021/07/11 01:25:08;;;;;;;22.67;19.23;;;;;;;20.97;100.00;100857.66;1762574;80;21525;-82
2021/07/11 01:27:36;;;;;;;21.10;19.20;;;;;;;20.92;100.00;100857.39;1776878;79;21054;-82
2021/07/11 01:30:07;;;;;;;21.37;19.12;;;;;;;20.92;100.00;100856.06;1768049;78;21112;-81
2021/07/11 01:32:39;;;;;;;21.05;19.15;;;;;;;20.89;100.00;100858.57;1766157;78;21083;-83
2021/07/11 01:35:08;;;;;;;23.12;19.98;;;;;;;20.89;100.00;100851.11;1771861;79;21421;-82
2021/07/11 01:37:36;;;;;;;20.80;18.60;;;;;;;20.89;100.00;100856.41;1766079;79;21109;-83
2021/07/11 01:40:08;;;;;;;20.85;18.52;;;;;;;20.89;100.00;100857.73;1780962;78;21014;-83
2021/07/11 01:42:39;;;;;;;19.92;17.87;;;;;;;20.87;100.00;100853.95;1795295;79;21022;-82
2021/07/11 01:45:07;;;;;;;20.60;18.23;;;;;;;20.87;100.00;100855.27;1771596;79;21074;-82
2021/07/11 01:47:35;;;;;;;22.50;20.23;;;;;;;20.88;100.00;100850.78;1789747;79;20938;-82
2021/07/11 01:50:06;;;;;;;19.57;17.73;;;;;;;20.89;100.00;100852.44;1798726;79;21078;-83
2021/07/11 01:52:33;;;;;;;20.62;18.62;;;;;;;20.88;100.00;100856.92;1769801;79;21465;-82
2021/07/11 01:55:02;;;;;;;19.77;17.98;;;;;;;20.87;100.00;100857.92;1773397;78;21578;-82
2021/07/11 01:57:31;;;;;;;21.50;18.90;;;;;;;20.85;100.00;100856.45;1802736;78;22195;-82
2021/07/11 02:00:00;;;;;;;21.77;19.42;;;;;;;20.82;100.00;100856.31;1770938;79;21014;-81
2021/07/11 02:02:29;;;;;;;21.35;19.25;;;;;;;20.81;100.00;100853.34;1789741;79;21005;-83
2021/07/11 02:05:12;;;;;;;20.85;18.82;;;;;;;20.80;100.00;100857.80;1794979;79;22228;-83
2021/07/11 02:07:39;;;;;;;20.65;18.75;;;;;;;20.79;100.00;100860.63;1773702;79;21042;-84
2021/07/11 02:10:11;;;;;;;19.90;18.12;;;;;;;20.73;100.00;100862.15;1795905;79;21883;-83
2021/07/11 02:12:50;;;;;;;19.23;17.52;;;;;;;20.68;100.00;100863.16;1748127;79;22005;-82
2021/07/11 02:15:18;;;;;;;21.02;17.98;;;;;;;20.65;100.00;100863.50;1796963;78;21043;-83
2021/07/11 02:17:50;;;;;;;20.57;18.73;;;;;;;20.61;100.00;100856.92;1797491;78;20950;-85
2021/07/11 02:20:23;;;;;;;19.80;17.80;;;;;;;20.57;100.00;100858.26;1764313;79;21010;-85
2021/07/11 02:22:54;;;;;;;21.05;18.85;;;;;;;20.52;100.00;100861.94;1774787;78;21066;-82
2021/07/11 02:28:53;;;;;;;16.77;15.30;;;;;;;20.53;100.00;100859.63;1752747;79;20974;-82
2021/07/11 02:31:26;;;;;;;18.10;16.15;;;;;;;20.56;100.00;100857.45;1766916;79;21002;-83
2021/07/11 02:33:52;;;;;;;19.17;17.27;;;;;;;20.56;100.00;100863.22;1787804;79;22250;-81
2021/07/11 02:36:28;;;;;;;19.32;16.15;;;;;;;20.54;100.00;100862.59;1765452;79;21066;-82
2021/07/11 02:39:13;;;;;;;17.50;15.83;;;;;;;20.52;100.00;100870.69;1757682;79;21105;-84
2021/07/11 02:41:49;;;;;;;20.97;16.90;;;;;;;20.51;100.00;100868.22;1792356;79;20969;-82
2021/07/11 02:44:19;;;;;;;24.40;18.12;;;;;;;20.54;100.00;100873.18;1784661;79;20996;-83
2021/07/11 02:46:55;;;;;;;26.23;17.85;;;;;;;20.55;100.00;100869.03;1772689;79;21046;-83
2021/07/11 02:49:25;;;;;;;30.43;17.98;;;;;;;20.59;100.00;100864.20;1771807;79;21078;-84
2021/07/11 02:51:59;;;;;;;21.60;16.77;;;;;;;20.66;100.00;100866.47;1806103;78;20963;-83
2021/07/11 02:54:31;;;;;;;28.32;16.80;;;;;;;20.70;100.00;100874.88;1778720;79;21116;-82
2021/07/11 02:57:03;;;;;;;18.82;16.90;;;;;;;20.74;100.00;100878.86;1795839;79;21508;-83
2021/07/11 02:59:33;;;;;;;19.45;17.42;;;;;;;20.81;100.00;100875.84;1792419;78;20995;-82
2021/07/11 03:02:04;;;;;;;23.25;17.20;;;;;;;20.88;100.00;100867.98;1790061;79;22243;-80
2021/07/11 03:04:39;;;;;;;25.00;18.25;;;;;;;20.92;100.00;100874.59;1765446;79;21056;-82
2021/07/11 03:07:07;;;;;;;33.13;18.85;;;;;;;21.01;100.00;100874.02;1738366;80;21617;-82
2021/07/11 03:09:42;;;;;;;28.15;19.25;;;;;;;21.12;100.00;100871.77;1711680;80;21569;-82
2021/07/11 03:12:12;;;;;;;22.25;19.85;;;;;;;21.21;100.00;100868.56;1733562;80;21178;-83
2021/07/11 03:14:39;;;;;;;23.38;19.52;;;;;;;21.32;100.00;100876.56;1768477;79;21151;-81
2021/07/11 03:17:10;;;;;;;23.80;20.08;;;;;;;21.39;100.00;100870.06;1720366;80;21018;-81
2021/07/11 03:19:40;;;;;;;23.77;21.10;;;;;;;21.45;100.00;100862.70;1749903;80;21586;-82
2021/07/11 03:22:08;;;;;;;23.50;21.27;;;;;;;21.53;100.00;100865.75;1743797;80;21414;-81
2021/07/11 03:24:38;;;;;;;28.40;25.82;;;;;;;21.59;100.00;100865.89;1740792;80;21049;-84
2021/07/11 03:27:08;;;;;;;27.50;25.05;;;;;;;21.67;100.00;100861.50;1758545;80;21079;-80
2021/07/11 03:30:13;;;;;;;28.27;25.57;;;;;;;21.73;100.00;100866.91;1750373;79;21124;-80
2021/07/11 03:33:01;;;;;;;28.35;25.52;;;;;;;21.81;100.00;100869.95;1729104;81;21082;-80
2021/07/11 03:35:48;;;;;;;29.18;26.30;;;;;;;21.90;100.00;100868.05;1692232;82;21021;-81
2021/07/11 03:38:19;;;;;;;29.23;26.35;;;;;;;21.98;100.00;100861.80;1729225;81;21017;-81
2021/07/11 03:40:51;;;;;;;30.48;27.55;;;;;;;22.06;100.00;100863.03;1766889;79;21053;-81
2021/07/11 03:43:22;;;;;;;29.57;26.68;;;;;;;22.13;100.00;100859.14;1757687;79;21026;-81
2021/07/11 03:45:54;;;;;;;27.02;24.63;;;;;;;22.19;100.00;100855.73;1761149;79;21054;-80
2021/07/11 03:48:25;;;;;;;27.17;24.25;;;;;;;22.25;100.00;100853.66;1789388;79;21557;-82
2021/07/11 03:50:57;;;;;;;25.35;23.05;;;;;;;22.32;100.00;100856.39;1763943;79;20931;-80
2021/07/11 03:53:27;;;;;;;;;;;;;;;22.38;100.00;100853.83;1772368;79;21033;-81
2021/07/11 03:55:56;;;;;;;26.02;23.38;;;;;;;22.45;100.00;100848.59;1789805;79;20209;-81
2021/07/11 03:58:24;;;;;;;26.62;23.87;;;;;;;22.53;100.00;100849.00;1801852;79;21555;-81
2021/07/11 04:00:54;;;;;;;26.62;24.00;;;;;;;22.61;100.00;100846.22;1780831;79;21079;-81
2021/07/11 04:03:27;;;;;;;26.20;23.52;;;;;;;22.72;100.00;100843.56;1733985;81;21000;-81
2021/07/11 04:05:56;;;;;;;30.82;23.00;;;;;;;22.81;100.00;100846.89;1687373;83;22029;-82
2021/07/11 04:08:26;;;;;;;22.75;20.48;;;;;;;22.90;100.00;100842.29;1670812;82;21433;-82
2021/07/11 04:10:53;;;;;;;23.07;20.45;;;;;;;22.97;100.00;100843.97;1752398;80;21037;-83
2021/07/11 04:13:21;;;;;;;21.07;18.82;;;;;;;23.04;100.00;100840.05;1735713;79;21521;-81
2021/07/11 04:15:56;;;;;;;20.25;18.15;;;;;;;23.10;100.00;100837.14;1726687;82;21040;-82
2021/07/11 04:18:25;;;;;;;23.22;19.82;;;;;;;23.17;100.00;100834.02;1721907;79;21125;-83
2021/07/11 04:20:55;;;;;;;30.27;23.47;;;;;;;23.23;100.00;100837.25;1696951;82;21085;-84
2021/07/11 04:23:24;;;;;;;26.57;22.73;;;;;;;23.33;100.00;100841.41;1772593;79;21070;-83
2021/07/11 04:25:55;;;;;;;20.55;18.52;;;;;;;23.40;100.00;100839.61;1767699;79;21053;-84
2021/07/11 04:28:24;;;;;;;19.32;17.23;;;;;;;23.50;100.00;100840.58;1712607;82;21012;-84
2021/07/11 04:30:54;;;;;;;20.20;17.23;;;;;;;23.57;100.00;100837.45;1757752;79;21794;-84
2021/07/11 04:33:22;;;;;;;20.77;17.67;;;;;;;23.61;100.00;100838.19;1719825;81;21047;-83
2021/07/11 04:35:49;;;;;;;20.23;17.45;;;;;;;23.70;100.00;100842.02;1697294;82;21101;-83
2021/07/11 04:38:16;;;;;;;19.92;17.12;;;;;;;23.76;100.00;100841.22;1720680;82;21041;-82
2021/07/11 04:40:42;;;;;;;19.75;17.32;;;;;;;23.83;100.00;100840.77;1675403;83;21115;-83
2021/07/11 04:43:09;;;;;;;20.23;18.12;;;;;;;23.91;100.00;100843.26;1739042;79;21026;-84
2021/07/11 04:45:37;;;;;;;17.52;15.48;;;;;;;24.00;100.00;100840.42;1805573;78;20995;-82
2021/07/11 04:48:04;;;;;;;18.55;16.52;;;;;;;24.08;100.00;100844.24;1778101;79;21932;-83
2021/07/11 04:50:31;;;;;;;22.52;17.20;;;;;;;24.15;100.00;100841.61;1773122;79;21014;-83
2021/07/11 04:52:58;;;;;;;18.50;16.60;;;;;;;24.20;100.00;100849.31;1772295;79;21076;-83
2021/07/11 04:55:26;;;;;;;19.45;16.90;;;;;;;24.28;100.00;100846.16;1761629;80;21017;-83
2021/07/11 04:57:52;;;;;;;18.02;16.35;;;;;;;24.35;100.00;100845.66;1764976;79;20990;-83
2021/07/11 05:00:20;;;;;;;16.90;15.20;;;;;;;24.44;100.00;100842.31;1750787;80;21069;-83
2021/07/11 05:02:47;;;;;;;16.65;14.85;;;;;;;24.50;100.00;100844.97;1766572;79;21148;-82
2021/07/11 05:05:14;;;;;;;21.65;15.68;;;;;;;24.55;100.00;100844.36;1789293;79;21125;-83
2021/07/11 05:07:41;;;;;;;16.00;14.40;;;;;;;24.57;100.00;100842.33;1756910;79;21032;-84
2021/07/11 05:10:11;;;;;;;18.27;14.78;;;;;;;24.63;100.00;100843.36;1765317;79;21103;-85
2021/07/11 05:12:38;;;;;;;16.73;15.25;;;;;;;24.66;100.00;100845.60;1749268;80;21072;-85
2021/07/11 05:15:07;;;;;;;17.27;14.28;;;;;;;24.69;100.00;100837.25;1776400;79;21006;-84
2021/07/11 05:17:34;;;;;;;15.43;14.10;;;;;;;24.74;100.00;100837.45;1743691;80;21091;-84
2021/07/11 05:20:05;;;;;;;15.80;14.25;;;;;;;24.79;100.00;100841.67;1755572;81;21982;-84
2021/07/11 05:22:33;;;;;;;17.12;15.13;;;;;;;24.86;100.00;100839.83;1735828;81;20944;-85
2021/07/11 05:25:00;;;;;;;15.32;13.58;;;;;;;24.96;100.00;100845.23;1750697;81;21046;-84
2021/07/11 05:27:27;;;;;;;15.38;13.38;;;;;;;25.04;100.00;100839.69;1736108;81;20995;-85
2021/07/11 05:29:54;;;;;;;14.60;12.88;;;;;;;25.10;100.00;100840.22;1732863;80;20951;-84
2021/07/11 05:32:22;;;;;;;14.58;13.28;;;;;;;25.15;100.00;100844.94;1744740;80;21156;-85
2021/07/11 05:34:49;;;;;;;16.17;13.60;;;;;;;25.20;100.00;100841.13;1751174;80;21692;-86
2021/07/11 05:37:18;;;;;;;15.00;13.50;;;;;;;25.27;100.00;100841.13;1770769;79;21502;-86
2021/07/11 05:39:46;;;;;;;14.55;13.35;;;;;;;25.36;100.00;100839.85;1725136;81;20987;-84
2021/07/11 05:42:13;;;;;;;14.07;12.85;;;;;;;25.43;100.00;100837.21;1770481;79;21069;-85
2021/07/11 05:44:40;;;;;;;14.43;13.20;;;;;;;25.49;100.00;100845.20;1728209;81;21137;-87
2021/07/11 05:47:07;;;;;;;14.13;12.70;;;;;;;25.58;100.00;100842.31;1706978;81;21031;-86
2021/07/11 05:49:36;;;;;;;14.33;12.95;;;;;;;25.66;100.00;100841.55;1688241;82;21090;-86
2021/07/11 05:52:03;;;;;;;14.55;13.10;;;;;;;25.75;100.00;100843.48;1699916;82;21069;-84
2021/07/11 05:54:30;;;;;;;14.47;13.08;;;;;;;25.85;100.00;100842.20;1667004;83;21094;-85
2021/07/11 05:56:57;;;;;;;13.25;12.00;;;;;;;25.94;100.00;100844.94;1680892;84;21155;-84
2021/07/11 05:59:24;;;;;;;14.47;13.20;;;;;;;26.02;100.00;100838.02;1662573;84;21071;-84
2021/07/11 06:01:51;;;;;;;13.68;12.20;;;;;;;26.11;100.00;100831.97;1727985;79;21426;-85
2021/07/11 06:04:18;;;;;;;13.83;12.43;;;;;;;26.21;100.00;100832.84;1767966;79;21047;-84
2021/07/11 06:06:45;;;;;;;12.95;11.65;;;;;;;26.30;100.00;100833.69;1715660;79;20999;-85
2021/07/11 06:09:12;;;;;;;13.05;11.95;;;;;;;26.41;100.00;100833.52;1756852;80;21173;-85
2021/07/11 06:11:40;;;;;;;13.38;12.07;;;;;;;26.51;100.00;100829.56;1758318;79;21073;-84
2021/07/11 06:14:08;;;;;;;13.20;11.20;;;;;;;26.60;100.00;100832.27;1764977;79;21574;-86
2021/07/11 06:16:35;;;;;;;13.55;12.28;;;;;;;26.70;100.00;100839.78;1731134;79;21106;-85
2021/07/11 06:19:03;;;;;;;12.65;11.55;;;;;;;26.79;100.00;100828.36;1766857;80;21137;-84
2021/07/11 06:21:30;;;;;;;13.22;11.95;;;;;;;26.84;100.00;100828.52;1719617;81;21101;-84
2021/07/11 06:23:58;;;;;;;13.70;12.55;;;;;;;26.92;100.00;100833.58;1749969;79;21135;-86
2021/07/11 06:26:25;;;;;;;13.72;12.00;;;;;;;27.00;100.00;100824.48;1729573;79;21909;-84
2021/07/11 06:28:52;;;;;;;15.08;11.57;;;;;;;27.10;100.00;100831.98;1781447;79;21129;-84
2021/07/11 06:31:20;;;;;;;12.50;11.30;;;;;;;27.20;100.00;100831.78;1749894;80;21112;-84
2021/07/11 06:33:47;;;;;;;11.95;10.95;;;;;;;27.31;100.00;100830.22;1724518;81;21087;-86
2021/07/11 06:36:13;;;;;;;11.73;10.63;;;;;;;27.42;100.00;100828.70;1774064;79;21089;-86
2021/07/11 06:38:41;;;;;;;12.20;10.82;;;;;;;27.52;100.00;100822.31;1775422;79;21211;-87
2021/07/11 06:41:08;;;;;;;11.60;10.40;;;;;;;27.63;100.00;100816.73;1765217;79;22013;-85
2021/07/11 06:43:35;;;;;;;11.50;10.40;;;;;;;27.74;100.00;100820.51;1767470;80;21034;-86
2021/07/11 06:46:02;;;;;;;12.73;11.53;;;;;;;27.84;100.00;100822.14;1761543;80;21899;-88
2021/07/11 06:48:31;;;;;;;11.50;10.60;;;;;;;27.92;100.00;100819.68;1755230;79;21054;-83
2021/07/11 06:50:58;;;;;;;12.20;11.00;;;;;;;28.00;100.00;100816.66;1720409;81;21093;-83
2021/07/11 06:53:26;;;;;;;13.48;11.50;;;;;;;28.09;100.00;100823.06;1734404;81;21086;-84
2021/07/11 06:55:53;;;;;;;12.28;11.20;;;;;;;28.16;100.00;100815.25;1751073;80;21796;-82
2021/07/11 06:58:20;;;;;;;11.55;10.30;;;;;;;28.25;100.00;100815.73;1751000;81;21144;-83
2021/07/11 07:00:47;;;;;;;11.35;10.35;;;;;;;28.36;100.00;100816.00;1751467;80;21029;-85
2021/07/11 07:03:14;;;;;;;12.40;11.10;;;;;;;28.45;100.00;100815.42;1744221;81;21022;-83
2021/07/11 07:05:41;;;;;;;11.63;10.40;;;;;;;28.55;100.00;100809.53;1690719;82;21016;-85
2021/07/11 07:08:09;;;;;;;11.10;10.05;;;;;;;28.65;98.76;100811.09;1747564;80;21002;-83
2021/07/11 07:10:36;;;;;;;12.07;10.85;;;;;;;28.75;100.00;100811.08;1753263;79;21136;-83
2021/07/11 07:13:03;;;;;;;11.88;10.43;;;;;;;28.84;97.02;100810.22;1762603;79;21579;-83
2021/07/11 07:15:30;;;;;;;11.35;10.35;;;;;;;28.93;95.49;100816.33;1771327;79;21148;-83
2021/07/11 07:17:59;;;;;;;11.30;10.28;;;;;;;29.03;99.44;100811.72;1807181;78;20998;-83
2021/07/11 07:20:27;;;;;;;11.05;10.03;;;;;;;29.15;100.00;100814.39;1774617;79;21042;-83
2021/07/11 07:22:54;;;;;;;11.05;9.95;;;;;;;29.27;97.09;100815.20;1776085;78;21135;-83
2021/07/11 07:25:23;;;;;;;12.15;10.95;;;;;;;29.38;95.32;100819.45;1788061;78;20935;-84
2021/07/11 07:27:50;;;;;;;12.13;10.53;;;;;;;29.47;87.77;100815.36;1740210;80;21174;-84
2021/07/11 07:30:19;;;;;;;11.03;9.78;;;;;;;29.54;87.48;100812.01;1737386;81;21531;-84
2021/07/11 07:32:50;;;;;;;12.23;10.98;;;;;;;29.61;94.01;100811.88;1728635;81;21072;-83
2021/07/11 07:35:19;;;;;;;11.18;9.65;;;;;;;29.70;90.68;100817.67;1727982;81;21039;-85
2021/07/11 07:37:49;;;;;;;11.00;10.10;;;;;;;29.78;89.45;100811.93;1718450;82;21541;-85
2021/07/11 07:40:18;;;;;;;10.18;9.28;;;;;;;29.87;88.46;100815.06;1736489;82;22027;-85
2021/07/11 07:42:47;;;;;;;10.55;9.45;;;;;;;29.99;90.05;100817.73;1718944;82;21149;-86
2021/07/11 07:45:14;;;;;;;10.43;9.43;;;;;;;30.09;85.62;100819.23;1744811;80;20994;-86
2021/07/11 07:47:42;;;;;;;10.35;9.28;;;;;;;30.17;72.75;100822.87;1748919;80;21065;-85
2021/07/11 07:50:13;;;;;;;10.85;9.53;;;;;;;30.21;79.14;100817.31;1736932;79;21034;-84
2021/07/11 07:52:40;;;;;;;11.12;9.55;;;;;;;30.26;72.06;100819.28;1734378;80;21842;-86
2021/07/11 07:55:08;;;;;;;10.25;9.25;;;;;;;30.34;71.56;100820.73;1747848;80;21045;-85
2021/07/11 07:57:36;;;;;;;11.83;10.45;;;;;;;30.43;68.00;100821.17;1743920;80;21191;-85
2021/07/11 08:00:09;;;;;;;12.68;9.35;;;;;;;30.51;68.95;100813.53;1710874;82;21123;-85
2021/07/11 08:02:39;;;;;;;10.65;9.33;;;;;;;30.59;62.79;100818.21;1724032;80;21077;-85
2021/07/11 08:05:08;;;;;;;14.00;9.68;;;;;;;30.64;59.79;100816.97;1760565;79;21100;-85
2021/07/11 08:07:35;;;;;;;12.07;10.45;;;;;;;30.71;62.16;100817.62;1769265;79;21133;-86
2021/07/11 08:10:05;;;;;;;11.15;9.65;;;;;;;30.81;68.12;100814.26;1800699;78;21034;-85
2021/07/11 08:12:32;;;;;;;11.15;9.88;;;;;;;30.91;67.63;100816.27;1767244;78;21152;-85
2021/07/11 08:14:59;;;;;;;15.00;9.73;;;;;;;31.00;59.35;100804.05;1739993;79;21033;-85
2021/07/11 08:17:26;;;;;;;11.03;9.08;;;;;;;31.07;58.35;100809.25;1709425;81;21229;-85
2021/07/11 08:19:55;;;;;;;10.88;9.23;;;;;;;31.12;57.71;100809.34;1723602;81;21560;-86
2021/07/11 08:22:24;;;;;;;13.93;9.63;;;;;;;31.19;59.20;100804.59;1762603;79;20993;-84
2021/07/11 08:24:51;;;;;;;13.28;9.55;;;;;;;31.30;57.74;100804.19;1757429;78;21805;-85
2021/07/11 08:27:18;;;;;;;11.03;9.83;;;;;;;31.39;61.73;100806.72;1760510;80;21438;-85
2021/07/11 08:29:50;;;;;;;10.38;9.45;;;;;;;31.47;53.17;100800.10;1768184;79;21069;-86
2021/07/11 08:32:14;;;;;;;10.60;9.35;;;;;;;31.50;53.38;100800.13;1760794;78;21159;-86
2021/07/11 08:34:42;;;;;;;14.58;9.20;;;;;;;31.54;55.36;100796.69;1767792;79;21010;-85
2021/07/11 08:37:09;;;;;;;10.45;9.30;;;;;;;31.60;57.28;100806.44;1763960;79;21829;-85
2021/07/11 08:39:38;;;;;;;10.20;9.13;;;;;;;31.67;50.70;100798.72;1749899;79;21511;-84
2021/07/11 08:42:08;;;;;;;13.22;9.88;;;;;;;31.70;50.06;100802.27;1724115;79;21014;-86
2021/07/11 08:44:37;;;;;;;12.37;9.78;;;;;;;31.71;50.68;100796.63;1768701;79;21025;-86
2021/07/11 08:47:05;;;;;;;12.55;9.78;;;;;;;31.73;49.42;100798.53;1744301;79;21037;-85
2021/07/11 08:49:32;;;;;;;10.35;9.18;;;;;;;31.78;47.64;100789.70;1749584;79;21108;-85
2021/07/11 08:52:01;;;;;;;9.85;8.90;;;;;;;31.75;47.36;100786.99;1731383;80;20975;-84
2021/07/11 08:54:28;;;;;;;14.23;9.83;;;;;;;31.74;48.54;100793.44;1758609;79;21043;-86
2021/07/11 08:57:09;;;;;;;30.45;12.82;;;;;;;31.81;51.03;100788.38;1728644;80;21984;-84
2021/07/11 08:59:37;;;;;;;14.85;9.00;;;;;;;31.87;48.59;100794.09;1738740;80;21089;-86
2021/07/11 09:02:04;;;;;;;14.10;10.18;;;;;;;31.94;48.83;100792.83;1741213;80;21057;-85
2021/07/11 09:04:41;;;;;;;28.42;9.40;;;;;;;32.00;49.71;100792.87;1749400;80;21041;-85
2021/07/11 09:07:17;;;;;;;10.58;9.35;;;;;;;32.13;48.75;100786.25;1782438;79;21056;-85
2021/07/11 09:09:55;;;;;;;11.43;9.43;;;;;;;32.22;47.87;100784.75;1762811;79;21540;-85
2021/07/11 09:12:23;;;;;;;23.52;10.58;;;;;;;32.23;47.97;100785.03;1729355;79;21002;-85
2021/07/11 09:14:53;;;;;;;8.78;7.85;;;;;;;32.15;42.08;100789.52;1718906;81;21095;-86
2021/07/11 09:17:21;;;;;;;13.90;8.65;;;;;;;32.09;43.14;100786.75;1721086;82;21046;-85
2021/07/11 09:19:54;;;;;;;12.13;9.70;;;;;;;32.21;45.03;100785.23;1692687;83;21079;-84
2021/07/11 09:22:24;;;;;;;13.25;9.90;;;;;;;32.40;42.83;100787.06;1758414;80;21406;-85
2021/07/11 09:24:58;;;;;;;29.40;13.65;;;;;;;32.46;41.07;100790.58;1742515;79;21011;-85
2021/07/11 09:27:34;;;;;;;18.87;10.95;;;;;;;32.42;43.04;100782.75;1763911;79;22121;-86
2021/07/11 09:30:07;;;;;;;20.00;9.25;;;;;;;32.35;44.48;100778.92;1708417;81;21117;-86
2021/07/11 09:32:36;;;;;;;10.13;9.13;;;;;;;32.36;42.78;100773.81;1695545;82;21050;-86
2021/07/11 09:35:22;;;;;;;11.30;9.83;;;;;;;32.39;42.64;100776.52;1707524;82;21037;-86
2021/07/11 09:37:58;;;;;;;14.95;10.38;;;;;;;32.41;43.87;100775.19;1669432;84;21561;-85
2021/07/11 09:40:27;;;;;;;12.37;9.08;;;;;;;32.48;41.78;100770.14;1730871;80;21226;-84
2021/07/11 09:42:57;;;;;;;11.83;9.63;;;;;;;32.39;42.16;100773.31;1743918;80;21489;-85
2021/07/11 09:45:30;;;;;;;9.53;8.60;;;;;;;32.22;41.17;100772.08;1739518;80;20942;-85
2021/07/11 09:48:10;;;;;;;12.65;8.75;;;;;;;32.03;42.32;100784.29;1734028;80;21033;-85
2021/07/11 09:50:37;;;;;;;10.48;8.23;;;;;;;31.91;44.38;100775.03;1733861;81;21535;-86
2021/07/11 09:53:08;;;;;;;11.38;8.45;;;;;;;31.91;42.07;100775.83;1734222;81;21106;-85
2021/07/11 09:55:37;;;;;;;10.45;8.60;;;;;;;32.03;45.15;100768.13;1708608;81;21062;-85
2021/07/11 09:58:08;;;;;;;9.88;8.98;;;;;;;32.22;44.28;100767.25;1739488;81;21536;-85
2021/07/11 10:00:42;;;;;;;;;;;;;;;32.39;42.77;100765.75;1733105;80;21006;-87
2021/07/11 10:03:14;;;;;;;9.85;8.93;;;;;;;32.57;39.84;100771.25;1748284;81;20446;-86
2021/07/11 10:05:44;;;;;;;10.45;9.33;;;;;;;32.67;42.69;100763.23;1728204;81;21086;-85
2021/07/11 10:08:11;;;;;;;10.18;9.15;;;;;;;32.79;41.25;100767.66;1734303;81;20936;-85
2021/07/11 10:10:41;;;;;;;9.05;8.15;;;;;;;32.96;43.18;100764.25;1691667;80;21334;-85
2021/07/11 10:13:09;;;;;;;8.73;7.90;;;;;;;33.13;42.43;100767.30;1747548;79;21162;-84
2021/07/11 10:15:38;;;;;;;8.43;7.67;;;;;;;33.25;41.51;100771.12;1747478;79;21390;-85
2021/07/11 10:18:12;;;;;;;10.72;9.00;;;;;;;33.29;39.94;100768.95;1765040;78;21078;-86
2021/07/11 10:20:49;;;;;;;12.20;8.63;;;;;;;33.29;38.41;100759.50;1785546;78;21533;-85
2021/07/11 10:23:34;;;;;;;9.18;8.28;;;;;;;33.34;40.23;100761.44;1746475;80;20960;-85
2021/07/11 10:26:12;;;;;;;9.63;7.80;;;;;;;33.45;41.46;100757.70;1752002;79;21426;-86
2021/07/11 10:28:46;;;;;;;10.25;8.53;;;;;;;33.59;41.11;100762.06;1760669;80;21097;-86
2021/07/11 10:31:26;;;;;;;11.88;8.03;;;;;;;33.73;38.67;100760.19;1757691;79;21864;-86
2021/07/11 10:33:56;;;;;;;8.78;7.75;;;;;;;33.82;38.92;100758.59;1797682;78;21029;-85
2021/07/11 10:36:33;;;;;;;18.60;7.12;;;;;;;33.93;37.95;100752.13;1802180;78;21505;-85
2021/07/11 10:39:03;;;;;;;7.47;6.87;;;;;;;34.00;37.83;100753.22;1804270;78;21442;-84
2021/07/11 10:41:33;;;;;;;7.65;6.90;;;;;;;34.03;36.62;100743.77;1748991;79;21049;-84
2021/07/11 10:44:10;;;;;;;10.27;7.70;;;;;;;34.04;37.63;100734.58;1752741;79;21192;-85
2021/07/11 10:46:53;;;;;;;13.45;7.78;;;;;;;34.02;36.91;100750.24;1766741;79;21096;-84
2021/07/11 10:49:30;;;;;;;8.98;7.80;;;;;;;33.95;36.28;100755.37;1784834;78;21045;-82
2021/07/11 10:52:04;;;;;;;10.85;7.08;;;;;;;33.96;36.63;100752.95;1748221;80;20974;-83
2021/07/11 10:54:40;;;;;;;10.32;7.15;;;;;;;34.04;35.75;100749.44;1747516;80;22051;-85
2021/07/11 10:57:12;;;;;;;11.03;7.65;;;;;;;34.07;37.38;100750.26;1768528;79;21142;-84
2021/07/11 10:59:47;;;;;;;7.97;7.22;;;;;;;34.10;36.68;100743.77;1746279;79;21516;-85
2021/07/11 11:02:21;;;;;;;9.28;7.78;;;;;;;34.10;35.54;100744.30;1718019;80;21081;-83
2021/07/11 11:05:00;;;;;;;8.33;7.53;;;;;;;33.44;35.93;100747.19;1751078;80;21077;-84
2021/07/11 11:07:44;;;;;;;7.62;6.65;;;;;;;33.44;35.93;100747.19;1775210;78;21987;-82
2021/07/11 11:10:34;;;;;;;8.20;7.22;;;;;;;32.93;35.81;100746.44;1731901;80;21813;-84
2021/07/11 11:13:20;;;;;;;8.40;7.55;;;;;;;32.54;38.03;100743.49;1768659;79;21010;-82
2021/07/11 11:15:51;;;;;;;11.35;7.58;;;;;;;32.45;38.76;100745.84;1764972;80;21053;-82
2021/07/11 11:18:35;;;;;;;10.15;7.05;;;;;;;32.55;38.10;100748.61;1749860;78;28222;-85
2021/07/11 11:21:16;;;;;;;8.00;7.20;;;;;;;32.71;38.44;100743.31;1765958;80;21042;-88
2021/07/11 11:23:47;;;;;;;8.00;7.40;;;;;;;32.79;38.44;100736.11;1728221;80;21756;-85